sensor_id;sensor_type;location;lat;lon;timestamp;pressure;altitude;pressure_sealevel;temperature;humidity
71966;BME280;59836;52.132;5.442;2023-05-12T00:00:46;101750.44;;;12.10;99.66
71966;BME280;59836;52.132;5.442;2023-05-12T00:03:13;101750.63;;;12.04;100.00
71966;BME280;59836;52.132;5.442;2023-05-12T00:05:40;101758.78;;;12.04;99.76
71966;BME280;59836;52.132;5.442;2023-05-12T00:08:06;101756.25;;;11.97;100.00
71966;BME280;59836;52.132;5.442;2023-05-12T00:10:32;101750.81;;;11.97;100.00
71966;BME280;59836;52.132;5.442;2023-05-12T00:13:01;101758.41;;;11.95;100.00
71966;BME280;59836;52.132;5.442;2023-05-12T00:15:27;101749.50;;;12.00;100.00
71966;BME280;59836;52.132;5.442;2023-05-12T00:17:54;101747.53;;;11.95;100.00
71966;BME280;59836;52.132;5.442;2023-05-12T00:20:20;101742.97;;;12.01;100.00
71966;BME280;59836;52.132;5.442;2023-05-12T00:22:47;101744.06;;;12.00;100.00
71966;BME280;59836;52.132;5.442;2023-05-12T00:25:14;101748.09;;;11.97;100.00
71966;BME280;59836;52.132;5.442;2023-05-12T00:27:40;101733.41;;;11.98;100.00
71966;BME280;59836;52.132;5.442;2023-05-12T00:30:07;101740.03;;;12.02;100.00
71966;BME280;59836;52.132;5.442;2023-05-12T00:32:34;101742.66;;;11.97;100.00
71966;BME280;59836;52.132;5.442;2023-05-12T00:35:00;101739.88;;;11.92;100.00
71966;BME280;59836;52.132;5.442;2023-05-12T00:37:26;101736.53;;;11.85;100.00
71966;BME280;59836;52.132;5.442;2023-05-12T00:39:53;101730.59;;;11.88;100.00
71966;BME280;59836;52.132;5.442;2023-05-12T00:42:20;101738.75;;;11.88;100.00
71966;BME280;59836;52.132;5.442;2023-05-12T00:44:46;101736.84;;;11.88;100.00
71966;BME280;59836;52.132;5.442;2023-05-12T00:47:13;101733.25;;;11.82;100.00
71966;BME280;59836;52.132;5.442;2023-05-12T00:49:39;101737.44;;;11.68;100.00
71966;BME280;59836;52.132;5.442;2023-05-12T00:52:09;101729.94;;;11.75;100.00
71966;BME280;59836;52.132;5.442;2023-05-12T00:54:36;101729.94;;;11.75;100.00
71966;BME280;59836;52.132;5.442;2023-05-12T00:57:04;101726.81;;;11.66;100.00
71966;BME280;59836;52.132;5.442;2023-05-12T00:59:31;101725.25;;;11.71;100.00
71966;BME280;59836;52.132;5.442;2023-05-12T01:01:57;101722.84;;;11.74;100.00
71966;BME280;59836;52.132;5.442;2023-05-12T01:04:24;101720.69;;;11.76;100.00
71966;BME280;59836;52.132;5.442;2023-05-12T01:06:57;101717.97;;;11.76;100.00
71966;BME280;59836;52.132;5.442;2023-05-12T01:09:25;101715.72;;;11.68;100.00
71966;BME280;59836;52.132;5.442;2023-05-12T01:11:51;101707.00;;;11.66;100.00
71966;BME280;59836;52.132;5.442;2023-05-12T01:14:18;101713.06;;;11.73;100.00
71966;BME280;59836;52.132;5.442;2023-05-12T01:16:52;101704.38;;;11.76;100.00
71966;BME280;59836;52.132;5.442;2023-05-12T01:19:42;101704.34;;;11.71;100.00
71966;BME280;59836;52.132;5.442;2023-05-12T01:22:11;101699.06;;;11.59;100.00
71966;BME280;59836;52.132;5.442;2023-05-12T01:24:47;101701.56;;;11.66;100.00
71966;BME280;59836;52.132;5.442;2023-05-12T01:27:15;101696.13;;;11.66;100.00
71966;BME280;59836;52.132;5.442;2023-05-12T01:29:45;101701.06;;;11.69;100.00
71966;BME280;59836;52.132;5.442;2023-05-12T01:32:13;101701.84;;;11.70;100.00
71966;BME280;59836;52.132;5.442;2023-05-12T01:34:41;101697.97;;;11.60;100.00
71966;BME280;59836;52.132;5.442;2023-05-12T01:37:09;101698.78;;;11.61;100.00
71966;BME280;59836;52.132;5.442;2023-05-12T01:39:36;101695.84;;;11.67;100.00
71966;BME280;59836;52.132;5.442;2023-05-12T01:42:04;101702.06;;;11.63;100.00
71966;BME280;59836;52.132;5.442;2023-05-12T01:44:30;101698.28;;;11.64;100.00
71966;BME280;59836;52.132;5.442;2023-05-12T01:46:57;101704.56;;;11.64;100.00
71966;BME280;59836;52.132;5.442;2023-05-12T01:49:23;101703.22;;;11.67;100.00
71966;BME280;59836;52.132;5.442;2023-05-12T01:51:50;101707.81;;;11.66;100.00
71966;BME280;59836;52.132;5.442;2023-05-12T01:54:16;101700.50;;;11.67;100.00
71966;BME280;59836;52.132;5.442;2023-05-12T01:56:42;101704.34;;;11.71;100.00
71966;BME280;59836;52.132;5.442;2023-05-12T01:59:09;101705.97;;;11.72;100.00
71966;BME280;59836;52.132;5.442;2023-05-12T02:01:35;101703.81;;;11.74;100.00
71966;BME280;59836;52.132;5.442;2023-05-12T02:04:02;101704.63;;;11.75;100.00
71966;BME280;59836;52.132;5.442;2023-05-12T02:06:29;101703.66;;;11.59;100.00
71966;BME280;59836;52.132;5.442;2023-05-12T02:08:56;101704.84;;;11.68;100.00
71966;BME280;59836;52.132;5.442;2023-05-12T02:11:23;101707.63;;;11.73;100.00
71966;BME280;59836;52.132;5.442;2023-05-12T02:13:49;101701.84;;;11.70;100.00
71966;BME280;59836;52.132;5.442;2023-05-12T02:16:16;101699.97;;;11.70;100.00
71966;BME280;59836;52.132;5.442;2023-05-12T02:18:43;101696.13;;;11.66;100.00
71966;BME280;59836;52.132;5.442;2023-05-12T02:21:09;101701.06;;;11.69;100.00
71966;BME280;59836;52.132;5.442;2023-05-12T02:23:36;101694.84;;;11.74;100.00
71966;BME280;59836;52.132;5.442;2023-05-12T02:26:02;101694.09;;;11.78;100.00
71966;BME280;59836;52.132;5.442;2023-05-12T02:28:29;101693.25;;;11.78;100.00
71966;BME280;59836;52.132;5.442;2023-05-12T02:30:55;101695.41;;;11.76;100.00
71966;BME280;59836;52.132;5.442;2023-05-12T02:33:22;101691.56;;;11.72;100.00
71966;BME280;59836;52.132;5.442;2023-05-12T02:35:48;101679.94;;;11.76;100.00
71966;BME280;59836;52.132;5.442;2023-05-12T02:38:15;101694.03;;;11.73;100.00
71966;BME280;59836;52.132;5.442;2023-05-12T02:40:41;101689.66;;;11.72;100.00
71966;BME280;59836;52.132;5.442;2023-05-12T02:43:08;101686.91;;;11.67;100.00
71966;BME280;59836;52.132;5.442;2023-05-12T02:45:34;101686.59;;;11.63;100.00
71966;BME280;59836;52.132;5.442;2023-05-12T02:48:01;101684.63;;;11.59;100.00
71966;BME280;59836;52.132;5.442;2023-05-12T02:50:27;101686.00;;;11.56;100.00
71966;BME280;59836;52.132;5.442;2023-05-12T02:52:54;101684.63;;;11.59;100.00
71966;BME280;59836;52.132;5.442;2023-05-12T02:55:20;101678.69;;;11.62;100.00
71966;BME280;59836;52.132;5.442;2023-05-12T02:57:46;101684.41;;;11.60;100.00
71966;BME280;59836;52.132;5.442;2023-05-12T03:00:13;101685.78;;;11.63;100.00
71966;BME280;59836;52.132;5.442;2023-05-12T03:02:40;101685.53;;;11.64;100.00
71966;BME280;59836;52.132;5.442;2023-05-12T03:05:07;101683.09;;;11.68;100.00
71966;BME280;59836;52.132;5.442;2023-05-12T03:07:34;101683.06;;;11.63;100.00
71966;BME280;59836;52.132;5.442;2023-05-12T03:10:01;101683.06;;;11.63;100.00
71966;BME280;59836;52.132;5.442;2023-05-12T03:12:27;101681.97;;;11.64;100.00
71966;BME280;59836;52.132;5.442;2023-05-12T03:14:54;101676.03;;;11.67;100.00
71966;BME280;59836;52.132;5.442;2023-05-12T03:17:21;101681.75;;;11.65;100.00
71966;BME280;59836;52.132;5.442;2023-05-12T03:19:48;101674.13;;;11.67;100.00
71966;BME280;59836;52.132;5.442;2023-05-12T03:22:15;101678.19;;;11.65;100.00
71966;BME280;59836;52.132;5.442;2023-05-12T03:24:41;101677.56;;;11.58;100.00
71966;BME280;59836;52.132;5.442;2023-05-12T03:27:08;101679.22;;;11.59;100.00
71966;BME280;59836;52.132;5.442;2023-05-12T03:29:34;101675.97;;;11.62;100.00
71966;BME280;59836;52.132;5.442;2023-05-12T03:32:01;101677.38;;;11.64;100.00
71966;BME280;59836;52.132;5.442;2023-05-12T03:34:28;101668.66;;;11.62;100.00
71966;BME280;59836;52.132;5.442;2023-05-12T03:36:54;101668.56;;;11.52;100.00
71966;BME280;59836;52.132;5.442;2023-05-12T03:39:20;101660.41;;;11.52;100.00
71966;BME280;59836;52.132;5.442;2023-05-12T03:41:48;101667.22;;;11.55;100.00
71966;BME280;59836;52.132;5.442;2023-05-12T03:44:15;101664.75;;;11.53;100.00
71966;BME280;59836;52.132;5.442;2023-05-12T03:46:41;101674.03;;;11.57;100.00
71966;BME280;59836;52.132;5.442;2023-05-12T03:49:08;101667.78;;;11.57;100.00
71966;BME280;59836;52.132;5.442;2023-05-12T03:51:35;101673.22;;;11.57;100.00
71966;BME280;59836;52.132;5.442;2023-05-12T03:54:01;101669.97;;;11.60;100.00
71966;BME280;59836;52.132;5.442;2023-05-12T03:56:27;101666.75;;;11.63;100.00
71966;BME280;59836;52.132;5.442;2023-05-12T03:58:55;101666.19;;;11.61;100.00
71966;BME280;59836;52.132;5.442;2023-05-12T04:01:22;101664.75;;;11.53;100.00
71966;BME280;59836;52.132;5.442;2023-05-12T04:03:48;101660.97;;;11.54;100.00
71966;BME280;59836;52.132;5.442;2023-05-12T04:06:15;101661.25;;;11.58;100.00
71966;BME280;59836;52.132;5.442;2023-05-12T04:08:41;101659.44;;;11.63;100.00
71966;BME280;59836;52.132;5.442;2023-05-12T04:11:08;101661.38;;;11.68;100.00
71966;BME280;59836;52.132;5.442;2023-05-12T04:13:34;101668.44;;;11.69;100.00
71966;BME280;59836;52.132;5.442;2023-05-12T04:16:01;101666.28;;;11.71;100.00
71966;BME280;59836;52.132;5.442;2023-05-12T04:18:27;101664.13;;;11.73;100.00
71966;BME280;59836;52.132;5.442;2023-05-12T04:20:54;101672.84;;;11.75;100.00
71966;BME280;59836;52.132;5.442;2023-05-12T04:23:21;101672.28;;;11.73;100.00
71966;BME280;59836;52.132;5.442;2023-05-12T04:25:48;101675.81;;;11.74;100.00
71966;BME280;59836;52.132;5.442;2023-05-12T04:28:14;101665.25;;;11.77;100.00
71966;BME280;59836;52.132;5.442;2023-05-12T04:30:41;101673.16;;;11.79;100.00
71966;BME280;59836;52.132;5.442;2023-05-12T04:33:08;101678.91;;;11.82;100.00
71966;BME280;59836;52.132;5.442;2023-05-12T04:35:35;101677.25;;;11.81;100.00
71966;BME280;59836;52.132;5.442;2023-05-12T04:38:01;101680.78;;;11.82;100.00
71966;BME280;59836;52.132;5.442;2023-05-12T04:40:29;101685.97;;;11.84;100.00
71966;BME280;59836;52.132;5.442;2023-05-12T04:42:57;101678.91;;;11.82;100.00
71966;BME280;59836;52.132;5.442;2023-05-12T04:45:24;101677.81;;;11.84;100.00
71966;BME280;59836;52.132;5.442;2023-05-12T04:47:50;101680.84;;;11.87;100.00
71966;BME280;59836;52.132;5.442;2023-05-12T04:50:17;101682.19;;;11.85;100.00
71966;BME280;59836;52.132;5.442;2023-05-12T04:52:43;101685.47;;;11.87;100.00
71966;BME280;59836;52.132;5.442;2023-05-12T04:55:10;101694.75;;;11.91;100.00
71966;BME280;59836;52.132;5.442;2023-05-12T04:57:36;101692.03;;;11.91;100.00
71966;BME280;59836;52.132;5.442;2023-05-12T05:00:03;101690.94;;;11.92;100.00
71966;BME280;59836;52.132;5.442;2023-05-12T05:02:31;101692.59;;;11.93;100.00
71966;BME280;59836;52.132;5.442;2023-05-12T05:04:57;101699.09;;;11.92;100.00
71966;BME280;59836;52.132;5.442;2023-05-12T05:07:24;101717.06;;;11.93;100.00
71966;BME280;59836;52.132;5.442;2023-05-12T05:09:50;101709.47;;;11.95;100.00
71966;BME280;59836;52.132;5.442;2023-05-12T05:12:17;101719.81;;;11.98;100.00
71966;BME280;59836;52.132;5.442;2023-05-12T05:14:43;101721.97;;;11.96;100.00
71966;BME280;59836;52.132;5.442;2023-05-12T05:17:09;101723.13;;;12.00;100.00
71966;BME280;59836;52.132;5.442;2023-05-12T05:19:37;101726.91;;;11.99;100.00
71966;BME280;59836;52.132;5.442;2023-05-12T05:22:23;101723.63;;;11.97;100.00
71966;BME280;59836;52.132;5.442;2023-05-12T05:24:49;101731.50;;;11.99;100.00
71966;BME280;59836;52.132;5.442;2023-05-12T05:27:17;101729.13;;;12.02;100.00
71966;BME280;59836;52.132;5.442;2023-05-12T05:29:43;101731.34;;;12.05;100.00
71966;BME280;59836;52.132;5.442;2023-05-12T05:32:09;101725.91;;;12.05;100.00
71966;BME280;59836;52.132;5.442;2023-05-12T05:34:36;101726.19;;;12.09;100.00
71966;BME280;59836;52.132;5.442;2023-05-12T05:37:03;101725.69;;;12.12;100.00
71966;BME280;59836;52.132;5.442;2023-05-12T05:39:29;101729.81;;;12.15;100.00
71966;BME280;59836;52.132;5.442;2023-05-12T05:41:56;101721.13;;;12.18;100.00
71966;BME280;59836;52.132;5.442;2023-05-12T05:44:23;101723.28;;;12.16;100.00
71966;BME280;59836;52.132;5.442;2023-05-12T05:46:50;101733.09;;;12.17;100.00
71966;BME280;59836;52.132;5.442;2023-05-12T05:49:17;101729.81;;;12.20;100.00
71966;BME280;59836;52.132;5.442;2023-05-12T05:51:44;101739.63;;;12.21;100.00
71966;BME280;59836;52.132;5.442;2023-05-12T05:54:10;101740.19;;;12.23;100.00
71966;BME280;59836;52.132;5.442;2023-05-12T05:56:37;101745.38;;;12.24;100.00
71966;BME280;59836;52.132;5.442;2023-05-12T05:59:03;101751.63;;;12.25;100.00
71966;BME280;59836;52.132;5.442;2023-05-12T06:01:30;101748.38;;;12.28;100.00
71966;BME280;59836;52.132;5.442;2023-05-12T06:03:57;101752.75;;;12.29;100.00
71966;BME280;59836;52.132;5.442;2023-05-12T06:06:24;101750.59;;;12.31;100.00
71966;BME280;59836;52.132;5.442;2023-05-12T06:08:50;101755.50;;;12.34;100.00
71966;BME280;59836;52.132;5.442;2023-05-12T06:11:17;101755.28;;;12.36;100.00
71966;BME280;59836;52.132;5.442;2023-05-12T06:13:43;101755.81;;;12.38;100.00
71966;BME280;59836;52.132;5.442;2023-05-12T06:16:10;101762.91;;;12.39;100.00
71966;BME280;59836;52.132;5.442;2023-05-12T06:18:36;101761.56;;;12.42;100.00
71966;BME280;59836;52.132;5.442;2023-05-12T06:21:04;101759.91;;;12.40;100.00
71966;BME280;59836;52.132;5.442;2023-05-12T06:23:31;101769.47;;;12.43;100.00
71966;BME280;59836;52.132;5.442;2023-05-12T06:25:57;101775.72;;;12.44;100.00
71966;BME280;59836;52.132;5.442;2023-05-12T06:28:24;101770.84;;;12.46;100.00
71966;BME280;59836;52.132;5.442;2023-05-12T06:30:50;101778.50;;;12.49;100.00
71966;BME280;59836;52.132;5.442;2023-05-12T06:33:17;101780.97;;;12.50;100.00
71966;BME280;59836;52.132;5.442;2023-05-12T06:35:43;101781.78;;;12.51;100.00
71966;BME280;59836;52.132;5.442;2023-05-12T06:38:18;101772.53;;;12.52;100.00
71966;BME280;59836;52.132;5.442;2023-05-12T06:40:46;101773.38;;;12.52;100.00
71966;BME280;59836;52.132;5.442;2023-05-12T06:43:48;101784.53;;;12.56;100.00
71966;BME280;59836;52.132;5.442;2023-05-12T06:46:14;101785.09;;;12.58;100.00
71966;BME280;59836;52.132;5.442;2023-05-12T06:48:41;101789.72;;;12.58;100.00
71966;BME280;59836;52.132;5.442;2023-05-12T06:51:07;101792.75;;;12.61;100.00
71966;BME280;59836;52.132;5.442;2023-05-12T06:53:34;101798.75;;;12.63;100.00
71966;BME280;59836;52.132;5.442;2023-05-12T06:56:04;101800.38;;;12.64;100.00
71966;BME280;59836;52.132;5.442;2023-05-12T06:58:30;101805.84;;;12.64;100.00
71966;BME280;59836;52.132;5.442;2023-05-12T07:00:57;101799.31;;;12.65;100.00
71966;BME280;59836;52.132;5.442;2023-05-12T07:03:24;101808.03;;;12.67;100.00
71966;BME280;59836;52.132;5.442;2023-05-12T07:05:50;101801.25;;;12.70;100.00
71966;BME280;59836;52.132;5.442;2023-05-12T07:08:17;101804.28;;;12.74;100.00
71966;BME280;59836;52.132;5.442;2023-05-12T07:10:43;101805.13;;;12.79;100.00
71966;BME280;59836;52.132;5.442;2023-05-12T07:13:10;101807.06;;;12.84;100.00
71966;BME280;59836;52.132;5.442;2023-05-12T07:15:36;101809.56;;;12.91;100.00
71966;BME280;59836;52.132;5.442;2023-05-12T07:18:02;101810.44;;;12.96;100.00
71966;BME280;59836;52.132;5.442;2023-05-12T07:20:29;101811.78;;;12.99;100.00
71966;BME280;59836;52.132;5.442;2023-05-12T07:22:55;101805.56;;;13.04;100.00
71966;BME280;59836;52.132;5.442;2023-05-12T07:25:22;101813.78;;;13.09;100.00
71966;BME280;59836;52.132;5.442;2023-05-12T07:27:49;101814.91;;;13.13;100.00
71966;BME280;59836;52.132;5.442;2023-05-12T07:30:16;101816.00;;;13.17;100.00
71966;BME280;59836;52.132;5.442;2023-05-12T07:32:42;101808.44;;;13.24;100.00
71966;BME280;59836;52.132;5.442;2023-05-12T07:35:09;101820.97;;;13.31;100.00
71966;BME280;59836;52.132;5.442;2023-05-12T07:37:35;101816.09;;;13.38;100.00
71966;BME280;59836;52.132;5.442;2023-05-12T07:40:02;101822.69;;;13.42;100.00
71966;BME280;59836;52.132;5.442;2023-05-12T07:42:29;101816.19;;;13.48;100.00
71966;BME280;59836;52.132;5.442;2023-05-12T07:44:56;101822.22;;;13.55;100.00
71966;BME280;59836;52.132;5.442;2023-05-12T07:47:22;101814.63;;;13.63;100.00
71966;BME280;59836;52.132;5.442;2023-05-12T07:49:49;101822.28;;;13.71;100.00
71966;BME280;59836;52.132;5.442;2023-05-12T07:52:15;101811.41;;;13.76;100.00
71966;BME280;59836;52.132;5.442;2023-05-12T07:54:42;101823.69;;;13.84;100.00
71966;BME280;59836;52.132;5.442;2023-05-12T07:57:08;101826.72;;;13.93;100.00
71966;BME280;59836;52.132;5.442;2023-05-12T07:59:34;101827.28;;;13.95;100.00
71966;BME280;59836;52.132;5.442;2023-05-12T08:02:01;101834.09;;;13.97;100.00
71966;BME280;59836;52.132;5.442;2023-05-12T08:04:28;101835.50;;;14.05;100.00
71966;BME280;59836;52.132;5.442;2023-05-12T08:06:54;101831.16;;;14.09;100.00
71966;BME280;59836;52.132;5.442;2023-05-12T08:09:21;101832.25;;;14.13;100.00
71966;BME280;59836;52.132;5.442;2023-05-12T08:11:47;101837.16;;;14.16;100.00
71966;BME280;59836;52.132;5.442;2023-05-12T08:14:17;101832.53;;;14.22;99.89
71966;BME280;59836;52.132;5.442;2023-05-12T08:16:43;101828.44;;;14.25;99.31
71966;BME280;59836;52.132;5.442;2023-05-12T08:19:12;101832.78;;;14.31;99.49
71966;BME280;59836;52.132;5.442;2023-05-12T08:21:39;101825.47;;;14.37;99.29
71966;BME280;59836;52.132;5.442;2023-05-12T08:24:05;101829.84;;;14.43;99.15
71966;BME280;59836;52.132;5.442;2023-05-12T08:26:32;101837.19;;;14.47;98.96
71966;BME280;59836;52.132;5.442;2023-05-12T08:28:58;101842.09;;;14.51;98.86
71966;BME280;59836;52.132;5.442;2023-05-12T08:31:25;101835.56;;;14.57;99.28
71966;BME280;59836;52.132;5.442;2023-05-12T08:33:51;101839.94;;;14.63;97.95
71966;BME280;59836;52.132;5.442;2023-05-12T08:36:36;101838.59;;;14.66;98.00
71966;BME280;59836;52.132;5.442;2023-05-12T08:39:02;101835.06;;;14.70;98.44
71966;BME280;59836;52.132;5.442;2023-05-12T08:41:44;101844.63;;;14.73;96.94
71966;BME280;59836;52.132;5.442;2023-05-12T08:44:14;101850.34;;;14.76;96.86
71966;BME280;59836;52.132;5.442;2023-05-12T08:46:41;101847.63;;;14.82;96.35
71966;BME280;59836;52.132;5.442;2023-05-12T08:49:13;101849.50;;;14.86;96.04
71966;BME280;59836;52.132;5.442;2023-05-12T08:51:43;101854.72;;;14.93;95.25
71966;BME280;59836;52.132;5.442;2023-05-12T08:54:22;101855.25;;;15.00;95.69
71966;BME280;59836;52.132;5.442;2023-05-12T08:56:50;101859.63;;;15.07;94.38
71966;BME280;59836;52.132;5.442;2023-05-12T08:59:22;101862.34;;;15.12;94.65
71966;BME280;59836;52.132;5.442;2023-05-12T09:01:49;101866.44;;;15.19;94.20
71966;BME280;59836;52.132;5.442;2023-05-12T09:04:16;101858.50;;;15.23;93.15
71966;BME280;59836;52.132;5.442;2023-05-12T09:06:44;101862.88;;;15.29;94.44
71966;BME280;59836;52.132;5.442;2023-05-12T09:09:16;101860.38;;;15.38;93.73
71966;BME280;59836;52.132;5.442;2023-05-12T09:11:42;101871.28;;;15.48;92.75
71966;BME280;59836;52.132;5.442;2023-05-12T09:14:23;101869.34;;;15.54;92.02
71966;BME280;59836;52.132;5.442;2023-05-12T09:17:02;101874.25;;;15.57;91.59
71966;BME280;59836;52.132;5.442;2023-05-12T09:19:29;101864.97;;;15.58;91.89
71966;BME280;59836;52.132;5.442;2023-05-12T09:21:55;101870.72;;;15.62;91.92
71966;BME280;59836;52.132;5.442;2023-05-12T09:24:33;101869.84;;;15.67;92.07
71966;BME280;59836;52.132;5.442;2023-05-12T09:27:00;101875.31;;;15.67;91.24
71966;BME280;59836;52.132;5.442;2023-05-12T09:29:26;101869.59;;;15.68;89.89
71966;BME280;59836;52.132;5.442;2023-05-12T09:32:00;101883.50;;;15.72;90.76
71966;BME280;59836;52.132;5.442;2023-05-12T09:34:33;101875.88;;;15.69;87.26
71966;BME280;59836;52.132;5.442;2023-05-12T09:37:05;101873.13;;;15.69;86.80
71966;BME280;59836;52.132;5.442;2023-05-12T09:39:32;101879.69;;;15.68;87.72
71966;BME280;59836;52.132;5.442;2023-05-12T09:41:59;101879.69;;;15.68;86.82
71966;BME280;59836;52.132;5.442;2023-05-12T09:44:25;101889.00;;;15.67;86.75
71966;BME280;59836;52.132;5.442;2023-05-12T09:46:54;101890.09;;;15.65;86.24
71966;BME280;59836;52.132;5.442;2023-05-12T09:49:23;101889.56;;;15.63;86.59
71966;BME280;59836;52.132;5.442;2023-05-12T09:51:54;101896.66;;;15.64;89.14
71966;BME280;59836;52.132;5.442;2023-05-12T09:54:29;101899.13;;;15.66;87.90
71966;BME280;59836;52.132;5.442;2023-05-12T09:56:58;101891.47;;;15.68;88.00
71966;BME280;59836;52.132;5.442;2023-05-12T09:59:33;101896.63;;;15.75;86.69
71966;BME280;59836;52.132;5.442;2023-05-12T10:02:01;101891.69;;;15.82;85.88
71966;BME280;59836;52.132;5.442;2023-05-12T10:04:47;101897.16;;;15.92;85.38
71966;BME280;59836;52.132;5.442;2023-05-12T10:07:15;101884.75;;;16.05;86.00
71966;BME280;59836;52.132;5.442;2023-05-12T10:09:44;101888.56;;;16.15;87.55
71966;BME280;59836;52.132;5.442;2023-05-12T10:12:11;101893.47;;;16.18;86.24
71966;BME280;59836;52.132;5.442;2023-05-12T10:14:39;101883.84;;;16.26;86.04
71966;BME280;59836;52.132;5.442;2023-05-12T10:17:06;101895.31;;;16.33;83.40
71966;BME280;59836;52.132;5.442;2023-05-12T10:19:34;101899.69;;;16.34;83.65
71966;BME280;59836;52.132;5.442;2023-05-12T10:22:01;101886.22;;;16.37;84.58
71966;BME280;59836;52.132;5.442;2023-05-12T10:24:29;101893.34;;;16.38;84.33
71966;BME280;59836;52.132;5.442;2023-05-12T10:26:56;101888.13;;;16.42;84.13
71966;BME280;59836;52.132;5.442;2023-05-12T10:29:23;101886.50;;;16.41;83.87
71966;BME280;59836;52.132;5.442;2023-05-12T10:31:55;101885.09;;;16.44;82.81
71966;BME280;59836;52.132;5.442;2023-05-12T10:34:22;101894.09;;;16.49;82.82
71966;BME280;59836;52.132;5.442;2023-05-12T10:36:50;101895.16;;;16.53;82.36
71966;BME280;59836;52.132;5.442;2023-05-12T10:39:17;101891.00;;;16.61;81.13
71966;BME280;59836;52.132;5.442;2023-05-12T10:41:44;101891.50;;;16.68;80.97
71966;BME280;59836;52.132;5.442;2023-05-12T10:44:11;101892.00;;;16.76;81.47
71966;BME280;59836;52.132;5.442;2023-05-12T10:46:40;101896.34;;;16.82;80.51
71966;BME280;59836;52.132;5.442;2023-05-12T10:49:09;101890.53;;;16.89;81.83
71966;BME280;59836;52.132;5.442;2023-05-12T10:54:10;101887.50;;;16.90;81.16
71966;BME280;59836;52.132;5.442;2023-05-12T10:59:18;101900.34;;;16.95;79.86
71966;BME280;59836;52.132;5.442;2023-05-12T11:02:11;101891.53;;;17.03;79.75
71966;BME280;59836;52.132;5.442;2023-05-12T11:04:57;101893.59;;;17.17;78.71
71966;BME280;59836;52.132;5.442;2023-05-12T11:07:26;101886.72;;;17.19;77.27
71966;BME280;59836;52.132;5.442;2023-05-12T11:09:56;101897.41;;;17.21;75.41
71966;BME280;59836;52.132;5.442;2023-05-12T11:12:31;101899.03;;;17.22;73.78
71966;BME280;59836;52.132;5.442;2023-05-12T11:15:00;101888.06;;;17.22;74.32
71966;BME280;59836;52.132;5.442;2023-05-12T11:17:27;101900.09;;;17.26;77.11
71966;BME280;59836;52.132;5.442;2023-05-12T11:19:54;101886.91;;;17.28;78.58
71966;BME280;59836;52.132;5.442;2023-05-12T11:22:21;101895.66;;;17.30;79.74
71966;BME280;59836;52.132;5.442;2023-05-12T11:24:50;101898.41;;;17.30;77.80
71966;BME280;59836;52.132;5.442;2023-05-12T11:27:19;101898.06;;;17.37;78.59
71966;BME280;59836;52.132;5.442;2023-05-12T11:29:58;101903.84;;;17.35;74.74
71966;BME280;59836;52.132;5.442;2023-05-12T11:32:25;101907.69;;;17.34;75.42
71966;BME280;59836;52.132;5.442;2023-05-12T11:34:52;101905.22;;;17.33;74.46
71966;BME280;59836;52.132;5.442;2023-05-12T11:37:18;101905.22;;;17.33;73.82
71966;BME280;59836;52.132;5.442;2023-05-12T11:39:46;101905.47;;;17.36;73.88
71966;BME280;59836;52.132;5.442;2023-05-12T11:42:13;101911.44;;;17.44;74.96
71966;BME280;59836;52.132;5.442;2023-05-12T11:44:48;101904.53;;;17.46;75.19
71966;BME280;59836;52.132;5.442;2023-05-12T11:47:15;101904.75;;;17.50;75.68
71966;BME280;59836;52.132;5.442;2023-05-12T11:49:52;101906.66;;;17.54;75.68
71966;BME280;59836;52.132;5.442;2023-05-12T11:52:21;101906.34;;;17.56;75.98
71966;BME280;59836;52.132;5.442;2023-05-12T11:54:52;101903.53;;;17.61;75.58
71966;BME280;59836;52.132;5.442;2023-05-12T11:57:26;101904.31;;;17.67;73.54
71966;BME280;59836;52.132;5.442;2023-05-12T12:00:00;101904.59;;;17.65;72.64
71966;BME280;59836;52.132;5.442;2023-05-12T12:02:27;101902.69;;;17.66;72.82
71966;BME280;59836;52.132;5.442;2023-05-12T12:04:54;101907.06;;;17.67;73.50
71966;BME280;59836;52.132;5.442;2023-05-12T12:07:34;101911.06;;;17.75;73.19
71966;BME280;59836;52.132;5.442;2023-05-12T12:10:15;101914.94;;;17.74;71.38
71966;BME280;59836;52.132;5.442;2023-05-12T12:12:42;101908.66;;;17.73;71.16
71966;BME280;59836;52.132;5.442;2023-05-12T12:15:09;101912.19;;;17.74;70.14
71966;BME280;59836;52.132;5.442;2023-05-12T12:17:36;101906.19;;;17.71;70.43
71966;BME280;59836;52.132;5.442;2023-05-12T12:20:03;101910.56;;;17.73;70.96
71966;BME280;59836;52.132;5.442;2023-05-12T12:22:30;101911.06;;;17.75;70.90
71966;BME280;59836;52.132;5.442;2023-05-12T12:25:00;101909.44;;;17.74;69.97
71966;BME280;59836;52.132;5.442;2023-05-12T12:27:26;101907.28;;;17.70;69.93
71966;BME280;59836;52.132;5.442;2023-05-12T12:29:53;101908.84;;;17.77;70.62
71966;BME280;59836;52.132;5.442;2023-05-12T12:32:19;101902.44;;;17.87;71.73
71966;BME280;59836;52.132;5.442;2023-05-12T12:34:46;101913.44;;;17.87;70.99
71966;BME280;59836;52.132;5.442;2023-05-12T12:37:14;101925.78;;;17.84;70.33
71966;BME280;59836;52.132;5.442;2023-05-12T12:39:41;101922.25;;;17.83;70.62
71966;BME280;59836;52.132;5.442;2023-05-12T12:42:08;101925.00;;;17.83;70.74
71966;BME280;59836;52.132;5.442;2023-05-12T12:44:34;101921.72;;;17.81;68.85
71966;BME280;59836;52.132;5.442;2023-05-12T12:47:01;101920.31;;;17.84;71.77
71966;BME280;59836;52.132;5.442;2023-05-12T12:49:27;101918.91;;;17.87;70.33
71966;BME280;59836;52.132;5.442;2023-05-12T12:51:54;101915.88;;;17.88;71.04